This is the latest recevied weather packets stored in our database for station/object KD0SBN. If no packets are shown the sender has not sent any weather packets the latest 10 day(s).
| Time | Temp. | Humidity | Pressure | Rain* | Wind** | Luminosity | Snow |
|---|---|---|---|---|---|---|---|
| 1777514494 | 11.67° C | 63% | 1017.5 hPa | 0 mm | - | - | - |
| 1777514192 | 11.67° C | 63% | 1017.2 hPa | 0 mm | - | - | - |
| 1777513888 | 11.67° C | 60% | 1017 hPa | 0 mm | - | - | - |
| 1777513586 | 11.67° C | 60% | 1016.9 hPa | 0 mm | - | - | - |
| 1777513282 | 11.67° C | 60% | 1016.8 hPa | 0 mm | - | - | - |
| 1777512978 | 12.22° C | 59% | 1016.6 hPa | 0 mm | - | - | - |
| 1777512675 | 12.22° C | 58% | 1016.5 hPa | 0 mm | - | - | - |
| 1777512372 | 12.22° C | 58% | 1016.5 hPa | 0 mm | - | - | - |
| 1777512069 | 12.78° C | 57% | 1016.6 hPa | 0 mm | - | - | - |
| 1777511767 | 12.78° C | 55% | 1016.6 hPa | 0 mm | - | - | - |
| 1777511463 | 12.78° C | 54% | 1016.4 hPa | 0 mm | - | - | - |
| 1777511161 | 13.33° C | 53% | 1016.4 hPa | 0 mm | - | - | - |
| 1777510855 | 13.89° C | 49% | 1016.3 hPa | 0 mm | - | - | - |
| 1777510553 | 14.44° C | 47% | 1016.2 hPa | 0 mm | - | - | - |
| 1777510249 | 16.11° C | 42% | 1016.2 hPa | 0 mm | - | - | - |
| 1777509945 | 16.11° C | 40% | 1015.9 hPa | 0 mm | - | - | - |
| 1777509641 | 16.67° C | 39% | 1015.7 hPa | 0 mm | - | - | - |
| 1777509338 | 16.67° C | 38% | 1015.6 hPa | 0 mm | - | - | - |
| 1777509036 | 16.67° C | 37% | 1015.7 hPa | 0 mm | - | - | - |
| 1777508733 | 16.67° C | 37% | 1015.4 hPa | 0 mm | - | - | - |
| 1777508430 | 17.22° C | 38% | 1015.5 hPa | 0 mm | - | - | - |
| 1777508127 | 17.22° C | 38% | 1015.4 hPa | 0 mm | - | - | - |
| 1777507823 | 17.78° C | 35% | 1015.4 hPa | 0 mm | - | - | - |
| 1777507521 | 17.78° C | 35% | 1015.2 hPa | 0 mm | - | - | - |
| 1777507217 | 17.78° C | 35% | 1015.1 hPa | 0 mm | - | - | - |
* Rain latest hour (hover to see other rain measurements)
** Current wind speed in m/s (hover to see current wind gust speed)